»·PEaware :: UAL359 KLAS-KLAX

UAL359 :: KLAS-KLAX

FLIGHT INFORMATION

Flight Status: Arrived
Operator:
United Airlines
More flights by this operator :: More flights under this callsign
Pilot: Maharsh P. (34406)
Aircraft: BOEING 737-800
(B738)
More flights by this aircraft type
Origin: KLAS McCarran Intl
United States
Destination: KLAX Los Angeles Intl
United States
More flights between these airports :: More routes between these airports
Route: RADYR1 BLAQQ SHTNR ANJLL4
File this flight plan on PilotEdge
Remarks:
Altitude:
(Current/Filed)
30,000ft
Speed:
(Current/Filed)
280kts
Departed: 03-Apr-21 08:07 PM
Arrived: 03-Apr-21 08:52 PM
Distance/Time
Traveled:
205nm/0:45
Distance/Time
To Go:
Arrived

Flight Plot

Page will automatically refresh every two minutes.

Flight plan parsing failed; only flown route is shown


Map Options




Map Legend


Flown Route
Filed Route
Departure Airport
Arrival Airport
Navaid (VOR, NDB)
Fix

Horizontal Profiles

Position Reports

Time Latitude Longitude Heading Altitude Ground
Speed
03-Apr-21 19:50 36.080556 -115.136538 46 2065ft 0kts
03-Apr-21 19:51 36.080556 -115.136538 46 2065ft 0kts
03-Apr-21 19:52 36.080556 -115.136538 46 2065ft 0kts
03-Apr-21 19:53 36.080556 -115.136538 46 2065ft 0kts
03-Apr-21 19:54 36.080556 -115.136538 46 2065ft 0kts
03-Apr-21 19:55 36.080556 -115.136538 46 2065ft 0kts
03-Apr-21 19:56 36.080556 -115.136538 46 2065ft 0kts
03-Apr-21 19:57 36.080333 -115.136827 46 2066ft 2kts
03-Apr-21 19:58 36.080099 -115.137397 130 2068ft 0kts
03-Apr-21 19:59 36.080158 -115.137464 135 2068ft 0kts
03-Apr-21 20:00 36.080158 -115.137464 135 2068ft 0kts
03-Apr-21 20:01 36.080157 -115.137464 135 2068ft 0kts
03-Apr-21 20:02 36.078536 -115.135443 134 2067ft 17kts
03-Apr-21 20:03 36.077542 -115.129677 89 2051ft 19kts
03-Apr-21 20:04 36.077451 -115.122633 123 2039ft 9kts
03-Apr-21 20:05 36.077268 -115.122407 151 2039ft 8kts
03-Apr-21 20:06 36.076404 -115.131032 269 2056ft 128kts
03-Apr-21 20:07 36.075793 -115.205265 264 5308ft 248kts
03-Apr-21 20:08 36.035622 -115.276251 197 8001ft 338kts
03-Apr-21 20:09 35.942089 -115.304800 192 11853ft 307kts
03-Apr-21 20:10 35.860821 -115.326203 191 11978ft 301kts
03-Apr-21 20:11 35.770345 -115.348467 191 13057ft 329kts
03-Apr-21 20:12 35.681746 -115.370154 191 13072ft 326kts
03-Apr-21 20:13 35.590374 -115.386383 178 16507ft 343kts
03-Apr-21 20:14 35.493201 -115.379552 177 19850ft 360kts
03-Apr-21 20:15 35.395242 -115.409848 204 22792ft 377kts
03-Apr-21 20:16 35.299350 -115.467582 207 25396ft 393kts
03-Apr-21 20:17 35.201763 -115.529207 207 28018ft 398kts
03-Apr-21 20:18 35.110912 -115.604935 221 29968ft 398kts
03-Apr-21 20:19 35.033154 -115.696894 225 29973ft 390kts
03-Apr-21 20:20 34.958271 -115.791113 225 29972ft 390kts
03-Apr-21 20:21 34.883194 -115.886388 226 29972ft 390kts
03-Apr-21 20:22 34.808131 -115.981621 226 29979ft 400kts
03-Apr-21 20:23 34.727895 -116.083378 226 29971ft 429kts
03-Apr-21 20:24 34.646062 -116.187396 226 29972ft 428kts
03-Apr-21 20:25 34.577991 -116.302224 237 29974ft 423kts
03-Apr-21 20:26 34.514282 -116.421364 237 29158ft 415kts
03-Apr-21 20:27 34.451707 -116.537998 237 28159ft 411kts
03-Apr-21 20:28 34.390549 -116.651627 236 27064ft 388kts
03-Apr-21 20:29 34.332732 -116.758715 236 25110ft 372kts
03-Apr-21 20:30 34.275704 -116.864030 236 23120ft 378kts
03-Apr-21 20:31 34.221759 -116.968822 244 21135ft 360kts
03-Apr-21 20:32 34.186271 -117.079005 250 19233ft 346kts
03-Apr-21 20:33 34.154985 -117.190904 251 18850ft 356kts
03-Apr-21 20:34 34.124084 -117.302477 251 17470ft 355kts
03-Apr-21 20:35 34.092710 -117.419739 253 13499ft 377kts
03-Apr-21 20:36 34.067657 -117.530303 259 12486ft 323kts
03-Apr-21 20:37 34.051202 -117.630918 259 11585ft 284kts
03-Apr-21 20:38 34.035794 -117.723345 258 10531ft 281kts
03-Apr-21 20:39 34.022021 -117.805401 258 9380ft 242kts
03-Apr-21 20:40 34.009680 -117.878595 258 6283ft 201kts
03-Apr-21 20:41 33.999860 -117.935877 253 5090ft 152kts
03-Apr-21 20:42 33.995333 -117.987861 256 5227ft 165kts
03-Apr-21 20:43 33.980878 -118.038881 249 6761ft 176kts
03-Apr-21 20:44 33.966941 -118.095063 258 6652ft 167kts
03-Apr-21 20:46 33.959988 -118.153023 263 5104ft 181kts
03-Apr-21 20:47 33.955487 -118.211352 264 4391ft 183kts
03-Apr-21 20:48 33.951187 -118.266163 264 3779ft 136kts
03-Apr-21 20:49 33.945929 -118.314951 262 3188ft 145kts
03-Apr-21 20:50 33.942037 -118.361118 258 865ft 128kts
03-Apr-21 20:51 33.938757 -118.390896 261 107ft 94kts
03-Apr-21 20:52 33.938363 -118.399347 298 116ft 12kts
03-Apr-21 20:53 33.938948 -118.400539 299 119ft 0kts
03-Apr-21 20:54 33.939404 -118.400834 325 119ft 11kts

Navigation Log

Ident Type
Flight plan parsing failed, navigation log unavailable